sensor_id;sensor_type;location;lat;lon;timestamp;P1;durP1;ratioP1;P2;durP2;ratioP2
11151;SDS011;5630;49.342;10.802;2023-01-26T00:01:16;19.83;;;13.33;;
11151;SDS011;5630;49.342;10.802;2023-01-26T00:03:46;18.00;;;11.55;;
11151;SDS011;5630;49.342;10.802;2023-01-26T00:06:13;20.80;;;12.37;;
11151;SDS011;5630;49.342;10.802;2023-01-26T00:08:44;18.88;;;12.90;;
11151;SDS011;5630;49.342;10.802;2023-01-26T00:11:13;19.65;;;12.32;;
11151;SDS011;5630;49.342;10.802;2023-01-26T00:13:40;17.65;;;11.65;;
11151;SDS011;5630;49.342;10.802;2023-01-26T00:16:10;18.77;;;12.07;;
11151;SDS011;5630;49.342;10.802;2023-01-26T00:18:37;18.92;;;12.50;;
11151;SDS011;5630;49.342;10.802;2023-01-26T00:21:04;18.60;;;11.35;;
11151;SDS011;5630;49.342;10.802;2023-01-26T00:23:31;20.38;;;12.48;;
11151;SDS011;5630;49.342;10.802;2023-01-26T00:25:58;20.33;;;12.70;;
11151;SDS011;5630;49.342;10.802;2023-01-26T00:28:24;17.73;;;11.80;;
11151;SDS011;5630;49.342;10.802;2023-01-26T00:30:49;18.03;;;11.90;;
11151;SDS011;5630;49.342;10.802;2023-01-26T00:33:15;16.20;;;10.63;;
11151;SDS011;5630;49.342;10.802;2023-01-26T00:35:40;15.97;;;10.93;;
11151;SDS011;5630;49.342;10.802;2023-01-26T00:38:12;16.08;;;10.85;;
11151;SDS011;5630;49.342;10.802;2023-01-26T00:40:38;17.23;;;11.77;;
11151;SDS011;5630;49.342;10.802;2023-01-26T00:43:04;18.25;;;12.15;;
11151;SDS011;5630;49.342;10.802;2023-01-26T00:45:30;18.88;;;11.15;;
11151;SDS011;5630;49.342;10.802;2023-01-26T00:47:56;19.73;;;11.60;;
11151;SDS011;5630;49.342;10.802;2023-01-26T00:50:22;16.60;;;11.13;;
11151;SDS011;5630;49.342;10.802;2023-01-26T00:52:47;18.10;;;11.77;;
11151;SDS011;5630;49.342;10.802;2023-01-26T00:55:13;17.33;;;12.23;;
11151;SDS011;5630;49.342;10.802;2023-01-26T00:57:38;17.83;;;11.03;;
11151;SDS011;5630;49.342;10.802;2023-01-26T01:00:04;17.93;;;10.93;;
11151;SDS011;5630;49.342;10.802;2023-01-26T01:02:30;16.75;;;11.20;;
11151;SDS011;5630;49.342;10.802;2023-01-26T01:04:56;17.87;;;11.33;;
11151;SDS011;5630;49.342;10.802;2023-01-26T01:07:22;16.27;;;10.90;;
11151;SDS011;5630;49.342;10.802;2023-01-26T01:09:48;16.63;;;10.80;;
11151;SDS011;5630;49.342;10.802;2023-01-26T01:12:13;14.57;;;10.33;;
11151;SDS011;5630;49.342;10.802;2023-01-26T01:14:39;17.80;;;11.23;;
11151;SDS011;5630;49.342;10.802;2023-01-26T01:17:04;17.37;;;11.20;;
11151;SDS011;5630;49.342;10.802;2023-01-26T01:19:30;16.20;;;10.77;;
11151;SDS011;5630;49.342;10.802;2023-01-26T01:21:56;16.07;;;10.90;;
11151;SDS011;5630;49.342;10.802;2023-01-26T01:24:21;16.20;;;10.70;;
11151;SDS011;5630;49.342;10.802;2023-01-26T01:26:47;18.83;;;11.67;;
11151;SDS011;5630;49.342;10.802;2023-01-26T01:29:12;17.53;;;11.67;;
11151;SDS011;5630;49.342;10.802;2023-01-26T01:31:39;16.85;;;11.45;;
11151;SDS011;5630;49.342;10.802;2023-01-26T01:34:05;16.90;;;11.00;;
11151;SDS011;5630;49.342;10.802;2023-01-26T01:36:31;18.97;;;11.17;;
11151;SDS011;5630;49.342;10.802;2023-01-26T01:38:56;17.30;;;12.10;;
11151;SDS011;5630;49.342;10.802;2023-01-26T01:41:22;16.90;;;11.57;;
11151;SDS011;5630;49.342;10.802;2023-01-26T01:43:49;18.10;;;12.13;;
11151;SDS011;5630;49.342;10.802;2023-01-26T01:52:13;18.45;;;11.93;;
11151;SDS011;5630;49.342;10.802;2023-01-26T01:54:49;18.55;;;11.80;;
11151;SDS011;5630;49.342;10.802;2023-01-26T01:57:30;15.50;;;10.77;;
11151;SDS011;5630;49.342;10.802;2023-01-26T02:00:08;16.58;;;11.07;;
11151;SDS011;5630;49.342;10.802;2023-01-26T02:02:37;17.77;;;10.98;;
11151;SDS011;5630;49.342;10.802;2023-01-26T02:05:06;17.33;;;11.43;;
11151;SDS011;5630;49.342;10.802;2023-01-26T02:07:40;17.67;;;11.45;;
11151;SDS011;5630;49.342;10.802;2023-01-26T02:10:06;16.80;;;11.03;;
11151;SDS011;5630;49.342;10.802;2023-01-26T02:12:49;17.27;;;11.45;;
11151;SDS011;5630;49.342;10.802;2023-01-26T02:15:19;17.73;;;11.32;;
11151;SDS011;5630;49.342;10.802;2023-01-26T02:17:45;18.40;;;11.20;;
11151;SDS011;5630;49.342;10.802;2023-01-26T02:20:21;15.00;;;10.93;;
11151;SDS011;5630;49.342;10.802;2023-01-26T02:28:17;14.60;;;9.83;;
11151;SDS011;5630;49.342;10.802;2023-01-26T02:30:49;15.27;;;10.40;;
11151;SDS011;5630;49.342;10.802;2023-01-26T02:33:16;14.77;;;10.40;;
11151;SDS011;5630;49.342;10.802;2023-01-26T02:35:50;15.50;;;9.55;;
11151;SDS011;5630;49.342;10.802;2023-01-26T02:38:16;17.30;;;11.13;;
11151;SDS011;5630;49.342;10.802;2023-01-26T02:40:50;15.80;;;9.85;;
11151;SDS011;5630;49.342;10.802;2023-01-26T02:43:19;17.40;;;10.65;;
11151;SDS011;5630;49.342;10.802;2023-01-26T02:45:47;19.23;;;11.02;;
11151;SDS011;5630;49.342;10.802;2023-01-26T02:48:13;16.93;;;10.90;;
11151;SDS011;5630;49.342;10.802;2023-01-26T02:50:59;16.13;;;10.88;;
11151;SDS011;5630;49.342;10.802;2023-01-26T02:53:24;16.30;;;11.23;;
11151;SDS011;5630;49.342;10.802;2023-01-26T02:55:50;16.90;;;10.97;;
11151;SDS011;5630;49.342;10.802;2023-01-26T02:58:16;16.80;;;11.13;;
11151;SDS011;5630;49.342;10.802;2023-01-26T03:00:42;17.83;;;11.20;;
11151;SDS011;5630;49.342;10.802;2023-01-26T03:03:13;20.17;;;10.87;;
11151;SDS011;5630;49.342;10.802;2023-01-26T03:05:49;17.70;;;11.68;;
11151;SDS011;5630;49.342;10.802;2023-01-26T03:08:15;18.60;;;11.45;;
11151;SDS011;5630;49.342;10.802;2023-01-26T03:10:41;17.40;;;12.67;;
11151;SDS011;5630;49.342;10.802;2023-01-26T03:13:07;18.20;;;11.40;;
11151;SDS011;5630;49.342;10.802;2023-01-26T03:15:32;15.83;;;10.83;;
11151;SDS011;5630;49.342;10.802;2023-01-26T03:18:08;17.77;;;11.10;;
11151;SDS011;5630;49.342;10.802;2023-01-26T03:20:54;18.52;;;11.18;;
11151;SDS011;5630;49.342;10.802;2023-01-26T03:23:59;17.48;;;11.77;;
11151;SDS011;5630;49.342;10.802;2023-01-26T03:26:43;18.05;;;11.30;;
11151;SDS011;5630;49.342;10.802;2023-01-26T03:29:27;16.95;;;10.65;;
11151;SDS011;5630;49.342;10.802;2023-01-26T03:31:54;15.43;;;10.75;;
11151;SDS011;5630;49.342;10.802;2023-01-26T03:34:19;17.40;;;11.73;;
11151;SDS011;5630;49.342;10.802;2023-01-26T03:36:45;17.67;;;10.97;;
11151;SDS011;5630;49.342;10.802;2023-01-26T03:39:11;19.13;;;11.55;;
11151;SDS011;5630;49.342;10.802;2023-01-26T03:41:57;16.30;;;11.05;;
11151;SDS011;5630;49.342;10.802;2023-01-26T03:44:42;18.13;;;11.45;;
11151;SDS011;5630;49.342;10.802;2023-01-26T03:47:26;18.90;;;11.88;;
11151;SDS011;5630;49.342;10.802;2023-01-26T03:50:10;18.08;;;11.25;;
11151;SDS011;5630;49.342;10.802;2023-01-26T03:52:55;16.08;;;10.73;;
11151;SDS011;5630;49.342;10.802;2023-01-26T03:55:39;15.90;;;10.68;;
11151;SDS011;5630;49.342;10.802;2023-01-26T03:58:23;16.48;;;11.02;;
11151;SDS011;5630;49.342;10.802;2023-01-26T04:00:51;17.88;;;10.63;;
11151;SDS011;5630;49.342;10.802;2023-01-26T04:03:17;13.37;;;9.43;;
11151;SDS011;5630;49.342;10.802;2023-01-26T04:06:01;16.75;;;10.82;;
11151;SDS011;5630;49.342;10.802;2023-01-26T04:08:45;17.52;;;10.98;;
11151;SDS011;5630;49.342;10.802;2023-01-26T04:11:11;15.68;;;10.63;;
11151;SDS011;5630;49.342;10.802;2023-01-26T04:13:37;15.63;;;10.73;;
11151;SDS011;5630;49.342;10.802;2023-01-26T04:16:21;16.67;;;11.27;;
11151;SDS011;5630;49.342;10.802;2023-01-26T04:19:05;14.48;;;10.32;;
11151;SDS011;5630;49.342;10.802;2023-01-26T04:21:49;15.20;;;10.05;;
11151;SDS011;5630;49.342;10.802;2023-01-26T04:24:15;14.43;;;10.47;;
11151;SDS011;5630;49.342;10.802;2023-01-26T04:26:41;17.47;;;11.10;;
11151;SDS011;5630;49.342;10.802;2023-01-26T04:29:11;17.85;;;10.45;;
11151;SDS011;5630;49.342;10.802;2023-01-26T04:31:38;15.55;;;10.18;;
11151;SDS011;5630;49.342;10.802;2023-01-26T04:34:05;15.68;;;9.88;;
11151;SDS011;5630;49.342;10.802;2023-01-26T04:36:34;15.80;;;10.23;;
11151;SDS011;5630;49.342;10.802;2023-01-26T04:39:00;15.00;;;9.63;;
11151;SDS011;5630;49.342;10.802;2023-01-26T04:41:27;16.50;;;10.17;;
11151;SDS011;5630;49.342;10.802;2023-01-26T04:43:53;16.45;;;10.30;;
11151;SDS011;5630;49.342;10.802;2023-01-26T04:46:19;15.37;;;9.53;;
11151;SDS011;5630;49.342;10.802;2023-01-26T04:48:44;15.80;;;10.00;;
11151;SDS011;5630;49.342;10.802;2023-01-26T04:51:11;15.20;;;10.07;;
11151;SDS011;5630;49.342;10.802;2023-01-26T04:53:39;14.52;;;10.43;;
11151;SDS011;5630;49.342;10.802;2023-01-26T04:56:05;15.93;;;10.30;;
11151;SDS011;5630;49.342;10.802;2023-01-26T04:58:33;15.40;;;10.07;;
11151;SDS011;5630;49.342;10.802;2023-01-26T05:00:58;15.60;;;10.50;;
11151;SDS011;5630;49.342;10.802;2023-01-26T05:03:24;14.57;;;10.67;;
11151;SDS011;5630;49.342;10.802;2023-01-26T05:05:51;17.80;;;11.30;;
11151;SDS011;5630;49.342;10.802;2023-01-26T05:08:19;13.43;;;10.07;;
11151;SDS011;5630;49.342;10.802;2023-01-26T05:10:46;14.93;;;9.55;;
11151;SDS011;5630;49.342;10.802;2023-01-26T05:13:12;16.20;;;10.30;;
11151;SDS011;5630;49.342;10.802;2023-01-26T05:15:38;14.98;;;10.25;;
11151;SDS011;5630;49.342;10.802;2023-01-26T05:18:04;16.98;;;10.80;;
11151;SDS011;5630;49.342;10.802;2023-01-26T05:20:31;17.00;;;10.98;;
11151;SDS011;5630;49.342;10.802;2023-01-26T05:22:56;18.50;;;11.03;;
11151;SDS011;5630;49.342;10.802;2023-01-26T05:25:22;16.23;;;10.73;;
11151;SDS011;5630;49.342;10.802;2023-01-26T05:27:48;15.48;;;11.05;;
11151;SDS011;5630;49.342;10.802;2023-01-26T05:30:14;16.63;;;10.97;;
11151;SDS011;5630;49.342;10.802;2023-01-26T05:32:40;19.13;;;12.05;;
11151;SDS011;5630;49.342;10.802;2023-01-26T05:35:06;16.60;;;10.73;;
11151;SDS011;5630;49.342;10.802;2023-01-26T05:37:32;17.23;;;11.02;;
11151;SDS011;5630;49.342;10.802;2023-01-26T05:39:58;15.87;;;11.57;;
11151;SDS011;5630;49.342;10.802;2023-01-26T05:42:24;18.13;;;11.35;;
11151;SDS011;5630;49.342;10.802;2023-01-26T05:44:50;18.50;;;11.23;;
11151;SDS011;5630;49.342;10.802;2023-01-26T05:47:16;16.03;;;10.83;;
11151;SDS011;5630;49.342;10.802;2023-01-26T05:49:42;15.50;;;10.97;;
11151;SDS011;5630;49.342;10.802;2023-01-26T05:52:14;16.33;;;9.98;;
11151;SDS011;5630;49.342;10.802;2023-01-26T05:54:41;15.43;;;9.57;;
11151;SDS011;5630;49.342;10.802;2023-01-26T05:57:07;15.30;;;9.43;;
11151;SDS011;5630;49.342;10.802;2023-01-26T05:59:33;14.35;;;9.65;;
11151;SDS011;5630;49.342;10.802;2023-01-26T06:01:58;14.00;;;9.17;;
11151;SDS011;5630;49.342;10.802;2023-01-26T06:04:25;16.73;;;10.85;;
11151;SDS011;5630;49.342;10.802;2023-01-26T06:06:51;17.60;;;10.68;;
11151;SDS011;5630;49.342;10.802;2023-01-26T06:09:18;15.38;;;10.15;;
11151;SDS011;5630;49.342;10.802;2023-01-26T06:11:44;14.63;;;9.73;;
11151;SDS011;5630;49.342;10.802;2023-01-26T06:14:09;13.77;;;8.70;;
11151;SDS011;5630;49.342;10.802;2023-01-26T06:16:35;13.60;;;8.60;;
11151;SDS011;5630;49.342;10.802;2023-01-26T06:19:00;14.23;;;8.87;;
11151;SDS011;5630;49.342;10.802;2023-01-26T06:21:26;13.83;;;9.40;;
11151;SDS011;5630;49.342;10.802;2023-01-26T06:23:51;12.20;;;8.27;;
11151;SDS011;5630;49.342;10.802;2023-01-26T06:26:17;17.30;;;9.33;;
11151;SDS011;5630;49.342;10.802;2023-01-26T06:28:43;13.50;;;8.83;;
11151;SDS011;5630;49.342;10.802;2023-01-26T06:31:09;12.33;;;8.00;;
11151;SDS011;5630;49.342;10.802;2023-01-26T06:33:35;13.90;;;8.07;;
11151;SDS011;5630;49.342;10.802;2023-01-26T06:36:06;13.38;;;8.48;;
11151;SDS011;5630;49.342;10.802;2023-01-26T06:38:34;16.35;;;8.52;;
11151;SDS011;5630;49.342;10.802;2023-01-26T06:41:01;11.30;;;7.75;;
11151;SDS011;5630;49.342;10.802;2023-01-26T06:43:28;13.50;;;8.85;;
11151;SDS011;5630;49.342;10.802;2023-01-26T06:45:55;11.85;;;8.38;;
11151;SDS011;5630;49.342;10.802;2023-01-26T06:48:24;13.07;;;8.57;;
11151;SDS011;5630;49.342;10.802;2023-01-26T06:50:50;10.30;;;7.20;;
11151;SDS011;5630;49.342;10.802;2023-01-26T06:53:33;13.10;;;8.50;;
11151;SDS011;5630;49.342;10.802;2023-01-26T06:56:01;12.00;;;8.02;;
11151;SDS011;5630;49.342;10.802;2023-01-26T06:58:27;12.77;;;8.23;;
11151;SDS011;5630;49.342;10.802;2023-01-26T07:00:53;13.27;;;8.43;;
11151;SDS011;5630;49.342;10.802;2023-01-26T07:03:19;11.38;;;7.90;;
11151;SDS011;5630;49.342;10.802;2023-01-26T07:05:45;12.57;;;8.20;;
11151;SDS011;5630;49.342;10.802;2023-01-26T07:08:10;13.77;;;8.30;;
11151;SDS011;5630;49.342;10.802;2023-01-26T07:10:36;13.30;;;8.40;;
11151;SDS011;5630;49.342;10.802;2023-01-26T07:13:03;9.25;;;5.63;;
11151;SDS011;5630;49.342;10.802;2023-01-26T07:15:29;13.48;;;7.03;;
11151;SDS011;5630;49.342;10.802;2023-01-26T07:17:55;12.93;;;7.60;;
11151;SDS011;5630;49.342;10.802;2023-01-26T07:20:21;16.30;;;9.97;;
11151;SDS011;5630;49.342;10.802;2023-01-26T07:22:48;13.00;;;9.23;;
11151;SDS011;5630;49.342;10.802;2023-01-26T07:25:14;13.07;;;9.77;;
11151;SDS011;5630;49.342;10.802;2023-01-26T07:27:40;9.20;;;7.03;;
11151;SDS011;5630;49.342;10.802;2023-01-26T07:30:06;10.50;;;7.80;;
11151;SDS011;5630;49.342;10.802;2023-01-26T07:32:32;8.37;;;6.87;;
11151;SDS011;5630;49.342;10.802;2023-01-26T07:34:58;8.90;;;6.03;;
11151;SDS011;5630;49.342;10.802;2023-01-26T07:37:27;12.13;;;8.70;;
11151;SDS011;5630;49.342;10.802;2023-01-26T07:39:52;36.92;;;24.05;;
11151;SDS011;5630;49.342;10.802;2023-01-26T07:42:18;14.33;;;9.70;;
11151;SDS011;5630;49.342;10.802;2023-01-26T07:44:44;11.47;;;7.60;;
11151;SDS011;5630;49.342;10.802;2023-01-26T07:47:09;8.60;;;6.77;;
11151;SDS011;5630;49.342;10.802;2023-01-26T07:49:35;10.10;;;7.20;;
11151;SDS011;5630;49.342;10.802;2023-01-26T07:52:00;10.20;;;7.53;;
11151;SDS011;5630;49.342;10.802;2023-01-26T07:54:26;9.93;;;6.83;;
11151;SDS011;5630;49.342;10.802;2023-01-26T07:56:52;11.87;;;7.73;;
11151;SDS011;5630;49.342;10.802;2023-01-26T07:59:18;11.25;;;7.90;;
11151;SDS011;5630;49.342;10.802;2023-01-26T08:01:44;10.85;;;7.78;;
11151;SDS011;5630;49.342;10.802;2023-01-26T08:04:10;8.93;;;6.40;;
11151;SDS011;5630;49.342;10.802;2023-01-26T08:06:36;8.60;;;6.97;;
11151;SDS011;5630;49.342;10.802;2023-01-26T08:09:02;10.47;;;7.40;;
11151;SDS011;5630;49.342;10.802;2023-01-26T08:11:28;9.40;;;6.60;;
11151;SDS011;5630;49.342;10.802;2023-01-26T08:13:54;10.53;;;6.53;;
11151;SDS011;5630;49.342;10.802;2023-01-26T08:16:19;10.43;;;7.00;;
11151;SDS011;5630;49.342;10.802;2023-01-26T08:18:45;11.37;;;7.23;;
11151;SDS011;5630;49.342;10.802;2023-01-26T08:21:12;9.55;;;7.00;;
11151;SDS011;5630;49.342;10.802;2023-01-26T08:23:39;9.13;;;6.60;;
11151;SDS011;5630;49.342;10.802;2023-01-26T08:26:06;11.00;;;7.07;;
11151;SDS011;5630;49.342;10.802;2023-01-26T08:28:34;11.35;;;7.50;;
11151;SDS011;5630;49.342;10.802;2023-01-26T08:31:04;11.90;;;7.00;;
11151;SDS011;5630;49.342;10.802;2023-01-26T08:33:32;10.35;;;7.03;;
11151;SDS011;5630;49.342;10.802;2023-01-26T08:36:01;11.60;;;6.90;;
11151;SDS011;5630;49.342;10.802;2023-01-26T08:38:29;11.43;;;7.13;;
11151;SDS011;5630;49.342;10.802;2023-01-26T08:40:56;12.88;;;7.65;;
11151;SDS011;5630;49.342;10.802;2023-01-26T08:43:21;11.10;;;7.50;;
11151;SDS011;5630;49.342;10.802;2023-01-26T08:45:47;11.27;;;7.60;;
11151;SDS011;5630;49.342;10.802;2023-01-26T08:48:13;11.33;;;7.27;;
11151;SDS011;5630;49.342;10.802;2023-01-26T08:50:38;16.57;;;9.43;;
11151;SDS011;5630;49.342;10.802;2023-01-26T08:53:04;11.53;;;8.23;;
11151;SDS011;5630;49.342;10.802;2023-01-26T08:55:29;11.27;;;7.80;;
11151;SDS011;5630;49.342;10.802;2023-01-26T08:57:56;11.77;;;7.57;;
11151;SDS011;5630;49.342;10.802;2023-01-26T09:00:22;12.65;;;7.80;;
11151;SDS011;5630;49.342;10.802;2023-01-26T09:02:49;10.77;;;7.68;;
11151;SDS011;5630;49.342;10.802;2023-01-26T09:05:15;14.13;;;8.75;;
11151;SDS011;5630;49.342;10.802;2023-01-26T09:07:41;13.07;;;7.40;;
11151;SDS011;5630;49.342;10.802;2023-01-26T09:10:06;12.17;;;8.20;;
11151;SDS011;5630;49.342;10.802;2023-01-26T09:12:32;14.00;;;8.32;;
11151;SDS011;5630;49.342;10.802;2023-01-26T09:14:58;10.93;;;7.57;;
11151;SDS011;5630;49.342;10.802;2023-01-26T09:17:24;14.03;;;7.63;;
11151;SDS011;5630;49.342;10.802;2023-01-26T09:19:49;12.77;;;7.97;;
11151;SDS011;5630;49.342;10.802;2023-01-26T09:22:15;10.43;;;7.30;;
11151;SDS011;5630;49.342;10.802;2023-01-26T09:24:40;13.40;;;8.60;;
11151;SDS011;5630;49.342;10.802;2023-01-26T09:27:06;11.73;;;8.10;;
11151;SDS011;5630;49.342;10.802;2023-01-26T09:29:32;11.23;;;7.20;;
11151;SDS011;5630;49.342;10.802;2023-01-26T09:31:58;15.33;;;8.23;;
11151;SDS011;5630;49.342;10.802;2023-01-26T09:34:23;11.37;;;8.50;;
11151;SDS011;5630;49.342;10.802;2023-01-26T09:36:49;12.13;;;7.67;;
11151;SDS011;5630;49.342;10.802;2023-01-26T09:39:15;14.33;;;9.57;;
11151;SDS011;5630;49.342;10.802;2023-01-26T09:44:46;17.17;;;11.65;;
11151;SDS011;5630;49.342;10.802;2023-01-26T09:50:09;17.27;;;10.77;;
11151;SDS011;5630;49.342;10.802;2023-01-26T09:52:41;12.70;;;7.93;;
11151;SDS011;5630;49.342;10.802;2023-01-26T09:55:15;14.15;;;9.27;;
11151;SDS011;5630;49.342;10.802;2023-01-26T09:57:46;13.10;;;8.05;;
11151;SDS011;5630;49.342;10.802;2023-01-26T10:00:35;14.45;;;9.40;;
11151;SDS011;5630;49.342;10.802;2023-01-26T10:08:53;13.05;;;9.02;;
11151;SDS011;5630;49.342;10.802;2023-01-26T10:11:25;15.38;;;9.38;;
11151;SDS011;5630;49.342;10.802;2023-01-26T10:14:10;12.98;;;8.75;;
11151;SDS011;5630;49.342;10.802;2023-01-26T10:16:46;12.38;;;8.20;;
11151;SDS011;5630;49.342;10.802;2023-01-26T10:22:06;15.52;;;9.43;;
11151;SDS011;5630;49.342;10.802;2023-01-26T10:24:40;14.55;;;10.10;;
11151;SDS011;5630;49.342;10.802;2023-01-26T10:27:15;15.35;;;10.23;;
11151;SDS011;5630;49.342;10.802;2023-01-26T10:29:42;15.60;;;10.00;;
11151;SDS011;5630;49.342;10.802;2023-01-26T10:32:12;15.23;;;10.07;;
11151;SDS011;5630;49.342;10.802;2023-01-26T10:34:39;15.30;;;10.10;;
11151;SDS011;5630;49.342;10.802;2023-01-26T10:37:14;18.07;;;11.87;;
11151;SDS011;5630;49.342;10.802;2023-01-26T10:39:59;16.75;;;11.05;;
11151;SDS011;5630;49.342;10.802;2023-01-26T10:42:27;16.35;;;10.48;;
11151;SDS011;5630;49.342;10.802;2023-01-26T10:44:55;19.27;;;11.60;;
11151;SDS011;5630;49.342;10.802;2023-01-26T10:47:22;19.67;;;11.98;;
11151;SDS011;5630;49.342;10.802;2023-01-26T10:49:48;22.17;;;13.27;;
11151;SDS011;5630;49.342;10.802;2023-01-26T10:52:15;20.63;;;13.50;;
11151;SDS011;5630;49.342;10.802;2023-01-26T10:54:41;20.73;;;12.35;;
11151;SDS011;5630;49.342;10.802;2023-01-26T10:57:19;20.27;;;12.93;;
11151;SDS011;5630;49.342;10.802;2023-01-26T10:59:55;23.10;;;14.25;;
11151;SDS011;5630;49.342;10.802;2023-01-26T11:02:29;26.15;;;15.10;;
11151;SDS011;5630;49.342;10.802;2023-01-26T11:10:18;24.50;;;14.00;;
11151;SDS011;5630;49.342;10.802;2023-01-26T11:12:46;26.85;;;14.95;;
11151;SDS011;5630;49.342;10.802;2023-01-26T11:15:17;27.80;;;15.13;;
11151;SDS011;5630;49.342;10.802;2023-01-26T11:17:47;26.00;;;15.45;;
11151;SDS011;5630;49.342;10.802;2023-01-26T11:25:40;24.58;;;14.73;;
11151;SDS011;5630;49.342;10.802;2023-01-26T11:31:26;28.67;;;15.60;;
11151;SDS011;5630;49.342;10.802;2023-01-26T11:34:07;28.58;;;16.30;;
11151;SDS011;5630;49.342;10.802;2023-01-26T11:37:23;24.38;;;15.40;;
11151;SDS011;5630;49.342;10.802;2023-01-26T11:56:08;26.57;;;15.53;;
11151;SDS011;5630;49.342;10.802;2023-01-26T11:59:10;27.42;;;15.57;;
11151;SDS011;5630;49.342;10.802;2023-01-26T12:01:42;26.98;;;16.05;;
11151;SDS011;5630;49.342;10.802;2023-01-26T12:04:19;32.95;;;19.52;;
11151;SDS011;5630;49.342;10.802;2023-01-26T12:06:52;30.20;;;16.52;;
11151;SDS011;5630;49.342;10.802;2023-01-26T12:09:25;29.05;;;15.70;;
11151;SDS011;5630;49.342;10.802;2023-01-26T12:12:03;27.42;;;16.20;;
11151;SDS011;5630;49.342;10.802;2023-01-26T12:14:50;28.13;;;16.08;;
11151;SDS011;5630;49.342;10.802;2023-01-26T12:28:43;23.50;;;13.20;;
11151;SDS011;5630;49.342;10.802;2023-01-26T12:33:39;26.60;;;15.68;;
11151;SDS011;5630;49.342;10.802;2023-01-26T12:41:12;30.10;;;17.70;;
11151;SDS011;5630;49.342;10.802;2023-01-26T12:46:53;37.17;;;20.35;;
11151;SDS011;5630;49.342;10.802;2023-01-26T12:52:09;41.20;;;22.13;;
11151;SDS011;5630;49.342;10.802;2023-01-26T12:57:09;39.40;;;20.50;;
11151;SDS011;5630;49.342;10.802;2023-01-26T12:59:39;38.45;;;20.50;;
11151;SDS011;5630;49.342;10.802;2023-01-26T13:04:39;39.22;;;21.60;;
11151;SDS011;5630;49.342;10.802;2023-01-26T13:15:30;40.85;;;22.02;;
11151;SDS011;5630;49.342;10.802;2023-01-26T13:17:57;41.10;;;22.65;;
11151;SDS011;5630;49.342;10.802;2023-01-26T13:20:28;42.25;;;23.92;;
11151;SDS011;5630;49.342;10.802;2023-01-26T13:23:35;33.78;;;20.70;;
11151;SDS011;5630;49.342;10.802;2023-01-26T13:31:51;36.28;;;20.67;;
11151;SDS011;5630;49.342;10.802;2023-01-26T13:34:22;33.13;;;19.23;;
11151;SDS011;5630;49.342;10.802;2023-01-26T13:37:02;35.83;;;21.40;;
11151;SDS011;5630;49.342;10.802;2023-01-26T13:39:34;34.67;;;20.10;;
11151;SDS011;5630;49.342;10.802;2023-01-26T13:42:01;33.75;;;19.85;;
11151;SDS011;5630;49.342;10.802;2023-01-26T13:44:40;33.33;;;19.83;;
11151;SDS011;5630;49.342;10.802;2023-01-26T13:47:11;30.50;;;18.58;;
11151;SDS011;5630;49.342;10.802;2023-01-26T13:49:44;33.70;;;18.80;;
11151;SDS011;5630;49.342;10.802;2023-01-26T13:52:20;29.53;;;18.03;;
11151;SDS011;5630;49.342;10.802;2023-01-26T13:54:48;31.27;;;17.88;;
11151;SDS011;5630;49.342;10.802;2023-01-26T13:57:20;28.67;;;17.35;;
11151;SDS011;5630;49.342;10.802;2023-01-26T13:59:48;31.13;;;18.15;;
11151;SDS011;5630;49.342;10.802;2023-01-26T14:04:58;32.10;;;18.48;;
11151;SDS011;5630;49.342;10.802;2023-01-26T14:07:26;21.88;;;10.70;;
11151;SDS011;5630;49.342;10.802;2023-01-26T14:09:55;30.27;;;15.88;;
11151;SDS011;5630;49.342;10.802;2023-01-26T14:12:24;29.35;;;18.10;;
11151;SDS011;5630;49.342;10.802;2023-01-26T14:14:54;27.38;;;16.67;;
11151;SDS011;5630;49.342;10.802;2023-01-26T14:17:23;27.25;;;16.15;;
11151;SDS011;5630;49.342;10.802;2023-01-26T14:19:51;28.45;;;17.20;;
11151;SDS011;5630;49.342;10.802;2023-01-26T14:22:17;27.80;;;17.93;;
11151;SDS011;5630;49.342;10.802;2023-01-26T14:24:46;27.93;;;16.57;;
11151;SDS011;5630;49.342;10.802;2023-01-26T14:30:03;30.38;;;16.58;;
11151;SDS011;5630;49.342;10.802;2023-01-26T14:32:56;27.13;;;16.75;;
11151;SDS011;5630;49.342;10.802;2023-01-26T14:35:27;29.10;;;17.27;;
11151;SDS011;5630;49.342;10.802;2023-01-26T14:38:11;29.20;;;18.97;;
11151;SDS011;5630;49.342;10.802;2023-01-26T14:43:15;30.95;;;17.80;;
11151;SDS011;5630;49.342;10.802;2023-01-26T14:45:43;30.63;;;17.63;;
11151;SDS011;5630;49.342;10.802;2023-01-26T14:48:23;33.35;;;19.35;;
11151;SDS011;5630;49.342;10.802;2023-01-26T14:50:55;27.38;;;17.60;;
11151;SDS011;5630;49.342;10.802;2023-01-26T14:53:23;29.60;;;18.25;;
11151;SDS011;5630;49.342;10.802;2023-01-26T14:55:49;29.50;;;17.75;;
11151;SDS011;5630;49.342;10.802;2023-01-26T14:58:21;29.27;;;18.23;;
11151;SDS011;5630;49.342;10.802;2023-01-26T15:00:51;33.45;;;20.63;;
11151;SDS011;5630;49.342;10.802;2023-01-26T15:06:16;33.15;;;20.00;;
11151;SDS011;5630;49.342;10.802;2023-01-26T15:08:54;30.20;;;17.77;;
11151;SDS011;5630;49.342;10.802;2023-01-26T15:14:26;30.73;;;17.98;;
11151;SDS011;5630;49.342;10.802;2023-01-26T15:16:56;28.92;;;17.40;;
11151;SDS011;5630;49.342;10.802;2023-01-26T15:19:23;28.87;;;17.97;;
11151;SDS011;5630;49.342;10.802;2023-01-26T15:21:50;31.67;;;18.90;;
11151;SDS011;5630;49.342;10.802;2023-01-26T15:24:16;30.83;;;17.98;;
11151;SDS011;5630;49.342;10.802;2023-01-26T15:26:42;35.73;;;20.00;;
11151;SDS011;5630;49.342;10.802;2023-01-26T15:29:21;27.52;;;17.73;;
11151;SDS011;5630;49.342;10.802;2023-01-26T15:31:55;30.98;;;17.38;;
11151;SDS011;5630;49.342;10.802;2023-01-26T15:34:28;28.92;;;18.23;;
11151;SDS011;5630;49.342;10.802;2023-01-26T15:37:01;27.48;;;17.42;;
11151;SDS011;5630;49.342;10.802;2023-01-26T15:39:47;32.88;;;18.52;;
11151;SDS011;5630;49.342;10.802;2023-01-26T15:42:14;31.00;;;17.20;;
11151;SDS011;5630;49.342;10.802;2023-01-26T15:44:44;36.38;;;20.00;;
11151;SDS011;5630;49.342;10.802;2023-01-26T15:47:10;29.83;;;17.93;;
11151;SDS011;5630;49.342;10.802;2023-01-26T15:49:37;29.13;;;17.35;;
11151;SDS011;5630;49.342;10.802;2023-01-26T15:52:13;35.33;;;19.58;;
11151;SDS011;5630;49.342;10.802;2023-01-26T15:54:39;32.55;;;19.60;;
11151;SDS011;5630;49.342;10.802;2023-01-26T15:57:04;31.10;;;18.60;;
11151;SDS011;5630;49.342;10.802;2023-01-26T15:59:30;32.63;;;18.00;;
11151;SDS011;5630;49.342;10.802;2023-01-26T16:01:56;28.13;;;17.03;;
11151;SDS011;5630;49.342;10.802;2023-01-26T16:04:21;34.37;;;18.87;;
11151;SDS011;5630;49.342;10.802;2023-01-26T16:06:49;31.73;;;17.75;;
11151;SDS011;5630;49.342;10.802;2023-01-26T16:09:15;24.67;;;11.17;;
11151;SDS011;5630;49.342;10.802;2023-01-26T16:11:43;37.17;;;21.03;;
11151;SDS011;5630;49.342;10.802;2023-01-26T16:14:12;29.48;;;16.70;;
11151;SDS011;5630;49.342;10.802;2023-01-26T16:16:38;32.00;;;18.20;;
11151;SDS011;5630;49.342;10.802;2023-01-26T16:19:04;29.40;;;17.70;;
11151;SDS011;5630;49.342;10.802;2023-01-26T16:21:31;29.63;;;18.03;;
11151;SDS011;5630;49.342;10.802;2023-01-26T16:23:59;28.55;;;17.45;;
11151;SDS011;5630;49.342;10.802;2023-01-26T16:26:26;28.02;;;17.42;;
11151;SDS011;5630;49.342;10.802;2023-01-26T16:28:52;30.15;;;18.30;;
11151;SDS011;5630;49.342;10.802;2023-01-26T16:33:46;30.75;;;17.52;;
11151;SDS011;5630;49.342;10.802;2023-01-26T16:36:13;33.40;;;18.80;;